Impacts METAR Board
IDs:

KBMQ - Burnet Muni, TX, US

Updated at: 0300 UTC 06 Dec 2019
Potential Impact None Slight Moderate High
Time 05/15Z 05/16Z 05/17Z 05/18Z 05/19Z 05/20Z 05/21Z 05/22Z 05/23Z 06/00Z 06/01Z 06/02Z 06/03Z
Temp58 60 65 68 73 75 78 76 73 70 66 65 63
Dewpt52 54 55 55 52 52 45 51 52 52 55 55 57
Altim30.05 30.07 30.05 30.02 29.98 29.94 29.92 29.92 29.93 29.94 29.96 29.98 30.00
VIS10 10 10 10 10 10 10 10 10 10 10 10 10
CIG-- -- -- -- -- -- -- -- -- -- -- -- --
CoverCLRFEWCLRCLRCLRCLRCLRCLRCLRCLRCLRCLRCLR
FltCatVFRVFRVFRVFRVFRVFRVFRVFRVFRVFRVFRVFRVFR
WX--------------------------
WDir170170170170180160210170160180160170180
WSpd7 7 8 8 8 7 14 8 8 10 7 8 5
WGst-- -- -- -- -- 17 20 18 -- -- -- -- --
Raw hourly METARs
KBMQ 051453Z AUTO 17007KT 10SM CLR 14/11 A3005 RMK AO2 SLP169 T01440111 53012
KBMQ 051553Z AUTO 17007KT 10SM FEW009 16/12 A3007 RMK AO2 SLP174 T01560122
KBMQ 051653Z AUTO 17008KT 10SM CLR 18/13 A3005 RMK AO2 SLP167 T01830128
KBMQ 051753Z AUTO 17008KT 10SM CLR 20/13 A3002 RMK AO2 SLP157 T02000128 10200 20100 58009
KBMQ 051853Z AUTO 18008KT 10SM CLR 23/11 A2998 RMK AO2 SLP141 T02280111
KBMQ 051953Z AUTO 16007G17KT 10SM CLR 24/11 A2994 RMK AO2 SLP128 T02390111
KBMQ 052053Z AUTO 21014G20KT 10SM CLR 26/07 A2992 RMK AO2 SLP121 T02560072 56031
KBMQ 052153Z AUTO 17008G18KT 10SM CLR 24/11 A2992 RMK AO2 SLP121 T02440106
KBMQ 052253Z AUTO 16008KT 10SM CLR 23/11 A2993 RMK AO2 SLP125 T02280111
KBMQ 052353Z AUTO 18010KT 10SM CLR 21/11 A2994 RMK AO2 SLP128 T02110111 10256 20200 53005
KBMQ 060053Z AUTO 16007KT 10SM CLR 19/13 A2996 RMK AO2 SLP138 T01890128
KBMQ 060153Z AUTO 17008KT 10SM CLR 18/13 A2998 RMK AO2 SLP145 T01830128
KBMQ 060253Z AUTO 18005KT 10SM CLR 17/14 A3000 RMK AO2 SLP149 T01720139 51020